createdAt,value
2019-02-16T00:00:12.183Z,1.32
2019-02-16T00:02:41.099Z,1.18
2019-02-16T00:05:10.131Z,1.11
2019-02-16T00:07:39.068Z,1.01
2019-02-16T00:10:08.089Z,1.13
2019-02-16T00:12:37.057Z,1.24
2019-02-16T00:15:06.296Z,1.03
2019-02-16T00:17:35.204Z,0.88
2019-02-16T00:20:04.334Z,0.95
2019-02-16T00:22:33.266Z,0.73
2019-02-16T00:25:02.346Z,0.73
2019-02-16T00:27:31.265Z,0.65
2019-02-16T00:30:00.359Z,0.52
2019-02-16T00:32:29.235Z,0.41
2019-02-16T00:34:58.078Z,0.31
2019-02-16T00:37:27.110Z,0.20
2019-02-16T00:39:56.132Z,0.21
2019-02-16T00:42:25.227Z,0.30
2019-02-16T00:44:54.123Z,0.44
2019-02-16T00:47:22.935Z,0.38
2019-02-16T00:49:51.851Z,0.35
2019-02-16T00:52:20.879Z,0.56
2019-02-16T00:54:49.787Z,0.79
2019-02-16T00:57:18.821Z,0.86
2019-02-16T00:59:47.755Z,1.07
2019-02-16T01:02:16.684Z,1.08
2019-02-16T01:04:45.657Z,1.14
2019-02-16T01:07:14.457Z,1.18
2019-02-16T01:09:43.421Z,1.07
2019-02-16T01:12:12.420Z,1.13
2019-02-16T01:14:41.368Z,1.18
2019-02-16T01:17:10.363Z,1.12
2019-02-16T01:19:39.352Z,1.21
2019-02-16T01:22:08.287Z,1.04
2019-02-16T01:24:37.304Z,0.78
2019-02-16T01:27:06.287Z,0.62
2019-02-16T01:29:35.228Z,0.44
2019-02-16T01:32:04.127Z,0.37
2019-02-16T01:34:33.095Z,0.29
2019-02-16T01:37:01.925Z,0.24
2019-02-16T01:39:30.946Z,0.18
2019-02-16T01:41:59.916Z,0.14
2019-02-16T01:44:28.842Z,0.01
2019-02-16T01:46:57.654Z,-0.14
2019-02-16T01:49:26.683Z,-0.22
2019-02-16T01:51:55.551Z,-0.32
2019-02-16T01:54:24.377Z,-0.36
2019-02-16T01:56:53.216Z,-0.28
2019-02-16T01:59:22.122Z,-0.33
2019-02-16T02:01:51.020Z,-0.23
2019-02-16T02:04:19.909Z,-0.14
2019-02-16T02:06:48.809Z,-0.05
2019-02-16T02:09:17.725Z,0.02
2019-02-16T02:11:46.642Z,0.03
2019-02-16T02:14:15.548Z,0.03
2019-02-16T02:16:44.422Z,0.08
2019-02-16T02:19:13.305Z,0.06
2019-02-16T02:21:42.371Z,-0.06
2019-02-16T02:24:12.976Z,-0.22
2019-02-16T02:26:41.793Z,-0.20
2019-02-16T02:29:10.748Z,-0.22
2019-02-16T02:31:39.649Z,-0.22
2019-02-16T02:34:08.649Z,-0.18
2019-02-16T02:36:37.570Z,-0.24
2019-02-16T02:39:07.038Z,-0.32
2019-02-16T02:41:36.104Z,-0.30
2019-02-16T02:44:05.063Z,-0.11
2019-02-16T02:46:33.979Z,-0.15
2019-02-16T02:49:04.105Z,-0.31
2019-02-16T02:51:32.952Z,-0.36
2019-02-16T02:54:01.834Z,-0.45
2019-02-16T02:56:30.845Z,-0.24
2019-02-16T02:58:59.702Z,-0.29
2019-02-16T03:01:28.728Z,-0.48
2019-02-16T03:03:57.612Z,-0.60
2019-02-16T03:06:26.507Z,-0.61
2019-02-16T03:08:55.411Z,-0.58
2019-02-16T03:11:24.360Z,-0.37
2019-02-16T03:13:53.167Z,-0.53
2019-02-16T03:16:22.332Z,-0.56
2019-02-16T03:18:51.279Z,-0.58
2019-02-16T03:21:20.115Z,-0.53
2019-02-16T03:23:49.075Z,-0.55
2019-02-16T03:26:57.630Z,-0.64
2019-02-16T03:29:57.431Z,-0.61
2019-02-16T03:33:12.577Z,-0.60
2019-02-16T03:36:30.286Z,-0.65
2019-02-16T03:39:15.051Z,-0.63
2019-02-16T03:41:43.967Z,-0.57
2019-02-16T03:44:16.152Z,-0.53
2019-02-16T03:46:45.149Z,-0.58
2019-02-16T03:49:14.113Z,-0.60
2019-02-16T03:51:42.892Z,-0.70
2019-02-16T03:54:11.830Z,-0.72
2019-02-16T03:56:40.806Z,-0.85
2019-02-16T03:59:09.651Z,-0.82
2019-02-16T04:01:38.648Z,-0.78
2019-02-16T04:04:07.669Z,-0.87
2019-02-16T04:06:36.446Z,-1.00
2019-02-16T04:09:06.675Z,-1.12
2019-02-16T04:11:35.695Z,-1.18
2019-02-16T04:14:04.661Z,-1.10
2019-02-16T04:16:33.576Z,-0.87
2019-02-16T04:19:02.355Z,-0.63
2019-02-16T04:21:31.323Z,-0.39
2019-02-16T04:24:00.240Z,-0.44
2019-02-16T04:26:29.252Z,-0.47
2019-02-16T04:28:58.222Z,-0.48
2019-02-16T04:31:27.207Z,-0.27
2019-02-16T04:33:56.041Z,-0.30
2019-02-16T04:36:24.998Z,-0.36
2019-02-16T04:38:53.929Z,-0.31
2019-02-16T04:41:23.068Z,-0.09
2019-02-16T04:43:51.939Z,-0.27
2019-02-16T04:46:20.830Z,-0.27
2019-02-16T04:48:49.677Z,-0.40
2019-02-16T04:51:18.550Z,-0.55
2019-02-16T04:53:47.530Z,-0.60
2019-02-16T04:56:16.665Z,-0.64
2019-02-16T04:58:45.493Z,-0.66
2019-02-16T05:01:14.464Z,-0.80
2019-02-16T05:03:43.352Z,-0.91
2019-02-16T05:06:12.306Z,-1.03
2019-02-16T05:08:41.316Z,-1.07
2019-02-16T05:11:10.294Z,-1.04
2019-02-16T05:13:39.186Z,-1.08
2019-02-16T05:16:08.175Z,-1.19
2019-02-16T05:18:36.986Z,-1.23
2019-02-16T05:21:05.876Z,-1.16
2019-02-16T05:23:34.792Z,-1.07
2019-02-16T05:26:03.783Z,-0.96
2019-02-16T05:28:32.737Z,-1.07
2019-02-16T05:31:01.645Z,-1.26
2019-02-16T05:33:30.574Z,-1.35
2019-02-16T05:35:59.575Z,-1.44
2019-02-16T05:38:28.363Z,-1.36
2019-02-16T05:40:57.270Z,-1.38
2019-02-16T05:43:26.080Z,-1.52
2019-02-16T05:45:55.013Z,-1.67
2019-02-16T05:48:23.942Z,-1.71
2019-02-16T05:50:52.877Z,-1.83
2019-02-16T05:53:21.680Z,-1.89
2019-02-16T05:55:50.590Z,-1.86
2019-02-16T05:58:19.452Z,-1.94
2019-02-16T06:00:48.411Z,-1.97
2019-02-16T06:03:17.364Z,-1.89
2019-02-16T06:05:46.270Z,-1.63
2019-02-16T06:08:15.329Z,-1.62
2019-02-16T06:10:44.275Z,-1.50
2019-02-16T06:13:13.347Z,-1.55
2019-02-16T06:15:42.337Z,-1.59
2019-02-16T06:18:11.262Z,-1.55
2019-02-16T06:20:40.051Z,-1.47
2019-02-16T06:23:08.960Z,-1.36
2019-02-16T06:25:37.977Z,-1.29
2019-02-16T06:28:06.929Z,-1.11
2019-02-16T06:30:35.839Z,-1.21
2019-02-16T06:33:04.783Z,-1.16
2019-02-16T06:35:38.171Z,-1.29
2019-02-16T06:38:07.096Z,-1.32
2019-02-16T06:40:36.009Z,-1.35
2019-02-16T06:43:04.987Z,-1.37
2019-02-16T06:45:33.955Z,-1.24
2019-02-16T06:48:02.964Z,-1.33
2019-02-16T06:50:36.921Z,-1.35
2019-02-16T06:53:02.624Z,-1.41
2019-02-16T06:55:39.752Z,-1.30
2019-02-16T06:58:09.557Z,-1.27
2019-02-16T07:00:38.394Z,-1.25
2019-02-16T07:03:10.265Z,-1.38
2019-02-16T07:05:39.198Z,-1.43
2019-02-16T07:08:08.257Z,-1.34
2019-02-16T07:10:37.218Z,-1.30
2019-02-16T07:13:06.419Z,-1.36
2019-02-16T07:15:35.305Z,-1.33
2019-02-16T07:18:13.923Z,-1.26
2019-02-16T07:20:42.935Z,-1.17
2019-02-16T07:23:12.170Z,-1.15
2019-02-16T07:25:40.974Z,-1.13
2019-02-16T07:28:09.944Z,-1.14
2019-02-16T07:30:38.873Z,-1.04
2019-02-16T07:33:07.828Z,-1.06
2019-02-16T07:35:36.895Z,-1.02
2019-02-16T07:38:05.896Z,-0.94
2019-02-16T07:40:34.859Z,-0.83
2019-02-16T07:43:04.034Z,-0.79
2019-02-16T07:46:10.385Z,-0.71
2019-02-16T07:48:56.805Z,-0.56
2019-02-16T07:51:56.532Z,-0.43
2019-02-16T07:54:30.736Z,-0.43
2019-02-16T07:57:07.212Z,-0.37
2019-02-16T07:59:43.682Z,-0.22
2019-02-16T08:02:31.608Z,-0.14
2019-02-16T08:05:19.521Z,-0.03
2019-02-16T08:08:02.874Z,0.04
2019-02-16T08:10:57.809Z,0.08
2019-02-16T08:13:40.991Z,0.23
2019-02-16T08:16:35.271Z,0.64
2019-02-16T08:19:23.266Z,0.70
2019-02-16T08:21:59.051Z,0.86
2019-02-16T08:24:45.736Z,0.81
2019-02-16T08:27:45.996Z,1.18
2019-02-16T08:30:49.317Z,1.28
2019-02-16T08:33:35.921Z,1.30
2019-02-16T08:36:20.763Z,1.24
2019-02-16T08:39:12.312Z,1.29
2019-02-16T08:42:06.481Z,1.35
2019-02-16T08:45:02.859Z,1.40
2019-02-16T08:47:41.115Z,1.52
2019-02-16T08:50:34.908Z,1.83
2019-02-16T08:53:19.467Z,1.94
2019-02-16T08:55:54.718Z,1.92
2019-02-16T08:58:57.904Z,2.03
2019-02-16T09:01:34.526Z,2.15
2019-02-16T09:04:22.563Z,2.25
2019-02-16T09:07:09.382Z,2.43
2019-02-16T09:09:56.012Z,2.59
2019-02-16T09:12:44.007Z,2.76
2019-02-16T09:15:42.097Z,3.00
2019-02-16T09:18:32.208Z,3.28
2019-02-16T09:21:15.119Z,3.67
2019-02-16T09:23:59.045Z,3.94
2019-02-16T09:26:45.340Z,4.14
2019-02-16T09:29:28.752Z,4.28
2019-02-16T09:32:19.671Z,4.23
2019-02-16T09:34:57.101Z,4.32
2019-02-16T09:37:43.716Z,4.32
2019-02-16T09:40:44.148Z,4.39
2019-02-16T09:43:30.985Z,4.52
2019-02-16T09:46:18.796Z,4.59
2019-02-16T09:48:58.816Z,4.65
2019-02-16T09:51:38.473Z,4.88
2019-02-16T09:54:20.915Z,4.88
2019-02-16T09:56:54.846Z,4.98
2019-02-16T09:59:45.761Z,5.04
2019-02-16T10:02:29.736Z,5.14
2019-02-16T10:05:18.225Z,5.33
2019-02-16T10:08:07.653Z,5.37
2019-02-16T10:10:54.252Z,5.41
2019-02-16T10:13:29.600Z,5.58
2019-02-16T10:16:25.674Z,5.92
2019-02-16T10:19:29.236Z,5.86
2019-02-16T10:22:20.357Z,5.91
2019-02-16T10:25:07.516Z,5.96
2019-02-16T10:27:53.944Z,6.05
2019-02-16T10:30:40.538Z,6.01
2019-02-16T10:33:28.444Z,6.28
2019-02-16T10:36:16.403Z,6.33
2019-02-16T10:39:08.303Z,6.76
2019-02-16T10:41:59.203Z,7.51
2019-02-16T10:44:40.648Z,7.54
2019-02-16T10:47:23.817Z,7.43
2019-02-16T10:50:12.857Z,7.26
2019-02-16T10:53:06.559Z,7.29
2019-02-16T10:56:00.298Z,7.10
2019-02-16T10:58:40.943Z,6.98
2019-02-16T11:01:34.633Z,6.96
2019-02-16T11:04:13.033Z,7.09
2019-02-16T11:07:01.036Z,7.06
2019-02-16T11:09:41.643Z,7.02
2019-02-16T11:12:38.967Z,7.09
2019-02-16T11:15:33.141Z,7.32
2019-02-16T11:18:26.232Z,7.48
2019-02-16T11:21:06.912Z,7.61
2019-02-16T11:23:58.196Z,7.75
2019-02-16T11:26:38.291Z,7.89
2019-02-16T11:29:25.077Z,7.79
2019-02-16T11:32:11.899Z,7.83
2019-02-16T11:34:49.593Z,7.92
2019-02-16T11:37:37.401Z,8.04
2019-02-16T11:40:18.611Z,8.13
2019-02-16T11:43:06.232Z,8.27
2019-02-16T11:45:53.097Z,8.26
2019-02-16T11:48:29.598Z,8.54
2019-02-16T11:51:36.028Z,8.54
2019-02-16T11:54:21.157Z,8.57
2019-02-16T11:57:02.615Z,8.75
2019-02-16T11:59:50.615Z,8.78
2019-02-16T12:02:40.016Z,8.79
2019-02-16T12:05:31.248Z,8.75
2019-02-16T12:08:14.527Z,8.82
2019-02-16T12:11:11.605Z,8.98
2019-02-16T12:13:55.938Z,9.17
2019-02-16T12:16:43.885Z,9.26
2019-02-16T12:19:29.198Z,9.25
2019-02-16T12:22:16.121Z,9.38
2019-02-16T12:25:08.558Z,9.28
2019-02-16T12:27:56.485Z,9.34
2019-02-16T12:30:36.229Z,9.42
2019-02-16T12:33:30.368Z,9.36
2019-02-16T12:36:18.269Z,9.39
2019-02-16T12:39:08.932Z,9.51
2019-02-16T12:41:56.876Z,10.01
2019-02-16T12:44:45.386Z,10.25
2019-02-16T12:47:32.088Z,10.23
2019-02-16T12:50:08.935Z,10.19
2019-02-16T12:53:00.263Z,10.18
2019-02-16T12:55:50.941Z,10.05
2019-02-16T12:58:34.448Z,10.16
2019-02-16T13:01:20.187Z,10.42
2019-02-16T13:04:14.159Z,10.39
2019-02-16T13:07:08.180Z,10.27
2019-02-16T13:09:55.136Z,10.21
2019-02-16T13:12:30.671Z,10.28
2019-02-16T13:15:19.242Z,10.43
2019-02-16T13:18:06.076Z,10.35
2019-02-16T13:20:44.884Z,10.51
2019-02-16T13:23:44.952Z,10.66
2019-02-16T13:26:20.156Z,10.77
2019-02-16T13:29:06.906Z,10.87
2019-02-16T13:31:43.994Z,10.61
2019-02-16T13:34:17.044Z,10.62
2019-02-16T13:36:57.297Z,10.80
2019-02-16T13:39:37.324Z,11.01
2019-02-16T13:42:12.203Z,11.05
2019-02-16T13:44:58.355Z,11.26
2019-02-16T13:47:45.903Z,11.46
2019-02-16T13:50:37.000Z,11.86
2019-02-16T13:53:23.703Z,12.40
2019-02-16T13:56:07.644Z,12.60
2019-02-16T13:58:53.564Z,12.82
2019-02-16T14:01:41.600Z,13.64
2019-02-16T14:04:35.569Z,13.87
2019-02-16T14:07:16.374Z,14.38
2019-02-16T14:10:22.618Z,14.43
2019-02-16T14:13:11.140Z,15.47
2019-02-16T14:15:58.456Z,15.34
2019-02-16T14:18:27.478Z,14.78
2019-02-16T14:20:56.473Z,14.19
2019-02-16T14:23:25.482Z,14.62
2019-02-16T14:25:54.477Z,14.98
2019-02-16T14:28:23.406Z,15.06
2019-02-16T14:30:52.354Z,14.96
2019-02-16T14:33:21.279Z,15.10
2019-02-16T14:35:50.954Z,14.95
2019-02-16T14:38:37.327Z,15.12
2019-02-16T14:41:06.231Z,15.16
2019-02-16T14:43:35.153Z,15.61
2019-02-16T14:46:04.217Z,15.62
2019-02-16T14:48:32.986Z,15.76
2019-02-16T14:51:01.925Z,15.89
2019-02-16T14:53:30.893Z,15.48
2019-02-16T14:55:59.777Z,16.08
2019-02-16T14:58:28.666Z,16.08
2019-02-16T15:00:57.691Z,16.89
2019-02-16T15:03:26.601Z,16.97
2019-02-16T15:05:55.494Z,16.56
2019-02-16T15:08:24.534Z,16.26
2019-02-16T15:10:53.378Z,16.36
2019-02-16T15:13:22.275Z,16.18
2019-02-16T15:15:51.103Z,16.70
2019-02-16T15:18:20.059Z,16.43
2019-02-16T15:20:48.900Z,16.27
2019-02-16T15:23:17.746Z,16.05
2019-02-16T15:25:46.643Z,16.20
2019-02-16T15:28:15.607Z,16.62
2019-02-16T15:30:44.467Z,16.74
2019-02-16T15:33:13.365Z,15.53
2019-02-16T15:35:42.367Z,15.95
2019-02-16T15:38:11.185Z,16.08
2019-02-16T15:40:40.089Z,16.04
2019-02-16T15:43:08.948Z,16.31
2019-02-16T15:45:37.892Z,16.30
2019-02-16T15:48:06.923Z,16.28
2019-02-16T15:50:35.953Z,16.46
2019-02-16T15:53:04.852Z,16.32
2019-02-16T15:55:33.745Z,16.24
2019-02-16T15:58:02.701Z,16.37
2019-02-16T16:00:31.758Z,16.33
2019-02-16T16:03:00.798Z,16.20
2019-02-16T16:05:29.686Z,16.11
2019-02-16T16:08:17.213Z,15.77
2019-02-16T16:11:26.332Z,15.52
2019-02-16T16:14:23.152Z,15.33
2019-02-16T16:17:09.997Z,14.68
2019-02-16T16:20:03.421Z,13.76
2019-02-16T16:22:57.373Z,13.47
2019-02-16T16:25:51.483Z,13.23
2019-02-16T16:28:42.506Z,12.78
2019-02-16T16:31:31.249Z,12.28
2019-02-16T16:34:11.794Z,11.83
2019-02-16T16:36:50.831Z,11.46
2019-02-16T16:39:44.923Z,11.29
2019-02-16T16:42:24.464Z,11.01
2019-02-16T16:45:04.730Z,10.75
2019-02-16T16:47:59.037Z,10.53
2019-02-16T16:50:49.992Z,10.74
2019-02-16T16:53:38.684Z,10.45
2019-02-16T16:56:28.606Z,10.04
2019-02-16T16:59:24.415Z,9.80
2019-02-16T17:02:02.766Z,9.48
2019-02-16T17:04:53.881Z,9.21
2019-02-16T17:07:29.338Z,9.15
2019-02-16T17:10:23.197Z,8.89
2019-02-16T17:13:01.422Z,8.65
2019-02-16T17:15:52.536Z,8.49
2019-02-16T17:18:28.294Z,8.41
2019-02-16T17:21:15.096Z,8.31
2019-02-16T17:23:59.759Z,8.61
2019-02-16T17:27:05.934Z,8.41
2019-02-16T17:29:52.467Z,8.13
2019-02-16T17:32:58.936Z,8.24
2019-02-16T17:35:49.446Z,8.08
2019-02-16T17:38:36.123Z,7.83
2019-02-16T17:41:22.892Z,7.85
2019-02-16T17:44:14.735Z,7.81
2019-02-16T17:47:01.788Z,7.71
2019-02-16T17:49:49.711Z,7.70
2019-02-16T17:52:36.359Z,7.53
2019-02-16T17:55:33.373Z,7.29
2019-02-16T17:58:24.273Z,7.04
2019-02-16T18:01:12.903Z,6.90
2019-02-16T18:04:09.586Z,6.77
2019-02-16T18:06:57.702Z,6.87
2019-02-16T18:09:44.539Z,6.73
2019-02-16T18:12:19.768Z,6.51
2019-02-16T18:14:58.780Z,6.34
2019-02-16T18:17:46.652Z,6.16
2019-02-16T18:20:24.610Z,6.12
2019-02-16T18:23:16.531Z,6.04
2019-02-16T18:25:53.967Z,5.95
2019-02-16T18:28:34.937Z,5.94
2019-02-16T18:31:22.858Z,5.90
2019-02-16T18:34:13.131Z,5.79
2019-02-16T18:36:59.389Z,5.85
2019-02-16T18:39:46.256Z,5.84
2019-02-16T18:42:32.821Z,6.10
2019-02-16T18:45:19.835Z,5.75
2019-02-16T18:48:06.739Z,5.67
2019-02-16T18:50:50.126Z,5.47
2019-02-16T18:53:47.187Z,5.46
2019-02-16T18:56:47.257Z,5.31
2019-02-16T18:59:44.403Z,5.18
2019-02-16T19:02:24.985Z,5.18
2019-02-16T19:05:01.466Z,5.11
2019-02-16T19:07:45.223Z,5.08
2019-02-16T19:10:22.719Z,5.01
2019-02-16T19:13:19.468Z,4.92
2019-02-16T19:16:04.519Z,4.85
2019-02-16T19:18:51.368Z,4.89
2019-02-16T19:21:34.544Z,4.85
2019-02-16T19:24:12.970Z,4.90
2019-02-16T19:26:59.827Z,4.98
2019-02-16T19:29:46.578Z,4.93
2019-02-16T19:32:46.475Z,4.92
2019-02-16T19:35:40.291Z,4.86
2019-02-16T19:38:20.323Z,4.75
2019-02-16T19:40:58.662Z,4.69
2019-02-16T19:43:39.701Z,4.55
2019-02-16T19:46:19.027Z,4.32
2019-02-16T19:49:13.312Z,4.11
2019-02-16T19:51:49.409Z,4.01
2019-02-16T19:54:46.452Z,3.97
2019-02-16T19:57:43.462Z,4.01
2019-02-16T20:00:27.184Z,4.16
2019-02-16T20:03:14.265Z,4.21
2019-02-16T20:06:04.970Z,3.91
2019-02-16T20:08:40.518Z,3.95
2019-02-16T20:11:27.035Z,3.68
2019-02-16T20:14:10.218Z,3.65
2019-02-16T20:17:04.256Z,3.56
2019-02-16T20:19:49.776Z,3.44
2019-02-16T20:22:36.277Z,3.42
2019-02-16T20:25:16.209Z,3.34
2019-02-16T20:28:06.705Z,3.38
2019-02-16T20:31:06.819Z,3.34
2019-02-16T20:33:57.974Z,3.35
2019-02-16T20:36:32.880Z,3.28
2019-02-16T20:39:19.646Z,3.25
2019-02-16T20:41:58.446Z,3.25
2019-02-16T20:45:01.491Z,3.21
2019-02-16T20:47:48.167Z,3.25
2019-02-16T20:50:52.133Z,3.33
2019-02-16T20:53:30.932Z,3.18
2019-02-16T20:56:17.901Z,3.09
2019-02-16T20:58:54.161Z,3.01
2019-02-16T21:01:54.356Z,2.82
2019-02-16T21:05:30.640Z,2.89
2019-02-16T21:08:33.916Z,2.80
2019-02-16T21:11:28.053Z,2.70
2019-02-16T21:14:34.640Z,2.79
2019-02-16T21:17:25.975Z,2.70
2019-02-16T21:20:03.707Z,2.55
2019-02-16T21:22:50.404Z,2.57
2019-02-16T21:25:36.866Z,2.57
2019-02-16T21:28:24.770Z,2.50
2019-02-16T21:31:18.295Z,2.52
2019-02-16T21:33:52.117Z,2.54
2019-02-16T21:36:42.923Z,2.50
2019-02-16T21:39:31.312Z,2.44
2019-02-16T21:42:07.339Z,2.43
2019-02-16T21:45:07.765Z,2.25
2019-02-16T21:48:01.678Z,2.34
2019-02-16T21:50:54.365Z,2.35
2019-02-16T21:53:45.340Z,2.39
2019-02-16T21:56:30.069Z,2.23
2019-02-16T21:59:24.581Z,2.14
2019-02-16T22:02:08.781Z,2.03
2019-02-16T22:04:56.682Z,1.95
2019-02-16T22:07:43.286Z,1.94
2019-02-16T22:10:31.279Z,1.93
2019-02-16T22:13:05.372Z,2.25
2019-02-16T22:15:34.642Z,2.07
2019-02-16T22:18:03.663Z,1.88
2019-02-16T22:20:32.557Z,1.71
2019-02-16T22:23:01.862Z,1.72
2019-02-16T22:25:30.849Z,1.59
2019-02-16T22:27:59.789Z,1.62
2019-02-16T22:30:28.890Z,1.64
2019-02-16T22:32:58.054Z,1.55
2019-02-16T22:35:28.729Z,1.44
2019-02-16T22:37:57.868Z,1.42
2019-02-16T22:40:26.779Z,1.35
2019-02-16T22:42:55.714Z,1.54
2019-02-16T22:45:24.679Z,1.63
2019-02-16T22:47:53.624Z,1.70
2019-02-16T22:50:22.513Z,1.83
2019-02-16T22:52:51.544Z,2.02
2019-02-16T22:55:20.635Z,1.87
2019-02-16T22:57:49.625Z,1.75
2019-02-16T23:00:37.607Z,1.74
2019-02-16T23:03:08.100Z,1.55
2019-02-16T23:05:37.012Z,1.48
2019-02-16T23:08:05.929Z,1.46
2019-02-16T23:10:34.886Z,1.49
2019-02-16T23:13:03.889Z,1.43
2019-02-16T23:15:32.850Z,1.47
2019-02-16T23:18:01.857Z,1.52
2019-02-16T23:20:30.884Z,1.32
2019-02-16T23:22:59.849Z,1.27
2019-02-16T23:25:28.840Z,1.22
2019-02-16T23:27:57.695Z,1.20
2019-02-16T23:30:26.700Z,1.14
2019-02-16T23:32:57.038Z,1.01
2019-02-16T23:35:26.194Z,0.88
2019-02-16T23:37:55.119Z,0.80
2019-02-16T23:40:23.962Z,0.83
2019-02-16T23:42:52.950Z,0.86
2019-02-16T23:45:21.812Z,0.75
2019-02-16T23:47:50.773Z,0.67
2019-02-16T23:50:19.641Z,0.65
2019-02-16T23:52:48.499Z,0.61
2019-02-16T23:55:17.464Z,0.59
2019-02-16T23:57:46.399Z,0.65
